ANA24 RJOO-RJTT
Flight info
| Callsign | ANA24 |
|---|---|
| Flight time | 0h 53m |
| Altitude | 27000 |
| Route | DCT ASUKA DCT SHTLE Y71 XAC XACV |
| Aircraft | A20N/M-S/L |
Departure
| Time | 2026-05-04 06:15 |
|---|---|
| Airport | Osaka Itami International Airport (RJOO) |
Arrival
| Time | 2026-05-04 07:08 |
|---|---|
| Airport | Tokyo Haneda International Airport (RJTT) |
| Time | Latitude | Longitude | Altitude | Speed | Heading |
|---|---|---|---|---|---|
| 2026-05-04 05:56 | 34.78786 | 135.44411 | 51 ft | 0 kts | 330° |
| 2026-05-04 06:05 | 34.78781 | 135.44414 | 51 ft | 2 kts | 329° |
| 2026-05-04 06:05 | 34.78764 | 135.44427 | 51 ft | 3 kts | 328° |
| 2026-05-04 06:06 | 34.78747 | 135.44440 | 50 ft | 3 kts | 325° |
| 2026-05-04 06:06 | 34.78731 | 135.44454 | 51 ft | 3 kts | 321° |
| 2026-05-04 06:06 | 34.78716 | 135.44470 | 51 ft | 3 kts | 311° |
| 2026-05-04 06:06 | 34.78705 | 135.44489 | 48 ft | 3 kts | 283° |
| 2026-05-04 06:07 | 34.78704 | 135.44504 | 49 ft | 1 kts | 229° |
| 2026-05-04 06:07 | 34.78705 | 135.44506 | 50 ft | 1 kts | 225° |
| 2026-05-04 06:11 | 34.78370 | 135.44335 | 51 ft | 10 kts | 181° |
| 2026-05-04 06:11 | 34.78291 | 135.44335 | 52 ft | 14 kts | 180° |
| 2026-05-04 06:13 | 34.77731 | 135.44874 | 51 ft | 19 kts | 135° |
| 2026-05-04 06:14 | 34.77249 | 135.45154 | 52 ft | 11 kts | 302° |
| 2026-05-04 06:14 | 34.77266 | 135.45129 | 53 ft | 0 kts | 312° |
| 2026-05-04 06:15 | 34.77404 | 135.44959 | 51 ft | 62 kts | 315° |
| 2026-05-04 06:15 | 34.77867 | 135.44394 | 50 ft | 125 kts | 314° |
| 2026-05-04 06:15 | 34.78610 | 135.43519 | 165 ft | 162 kts | 309° |
| 2026-05-04 06:15 | 34.79368 | 135.42543 | 781 ft | 156 kts | 303° |
| 2026-05-04 06:16 | 34.79662 | 135.41399 | 1589 ft | 139 kts | 261° |
| 2026-05-04 06:16 | 34.79281 | 135.40280 | 2180 ft | 159 kts | 239° |
| 2026-05-04 06:16 | 34.78212 | 135.39482 | 2548 ft | 208 kts | 198° |
| 2026-05-04 06:16 | 34.76699 | 135.39858 | 3171 ft | 244 kts | 156° |
| 2026-05-04 06:17 | 34.75468 | 135.41453 | 3571 ft | 284 kts | 117° |
| 2026-05-04 06:17 | 34.75139 | 135.43847 | 4444 ft | 291 kts | 80° |
| 2026-05-04 06:17 | 34.75905 | 135.46074 | 5530 ft | 284 kts | 46° |
| 2026-05-04 06:17 | 34.77308 | 135.47741 | 6381 ft | 283 kts | 37° |
| 2026-05-04 06:18 | 34.78690 | 135.49471 | 6834 ft | 292 kts | 47° |
| 2026-05-04 06:18 | 34.79702 | 135.51640 | 6979 ft | 300 kts | 69° |
| 2026-05-04 06:18 | 34.79970 | 135.54198 | 7173 ft | 310 kts | 89° |
| 2026-05-04 06:20 | 34.78708 | 135.74479 | 11730 ft | 398 kts | 98° |
| 2026-05-04 06:20 | 34.78481 | 135.77841 | 12378 ft | 408 kts | 99° |
| 2026-05-04 06:21 | 34.77500 | 135.92195 | 15000 ft | 438 kts | 101° |
| 2026-05-04 06:21 | 34.77248 | 135.95864 | 15630 ft | 443 kts | 101° |
| 2026-05-04 06:22 | 34.76984 | 135.99644 | 16232 ft | 450 kts | 101° |
| 2026-05-04 06:22 | 34.76813 | 136.03487 | 16809 ft | 459 kts | 95° |
| 2026-05-04 06:25 | 34.80453 | 136.55627 | 22950 ft | 516 kts | 91° |
| 2026-05-04 06:25 | 34.80849 | 136.61440 | 23500 ft | 522 kts | 91° |
| 2026-05-04 06:26 | 34.81152 | 136.65899 | 23884 ft | 525 kts | 91° |
| 2026-05-04 06:26 | 34.81454 | 136.70363 | 24296 ft | 529 kts | 91° |
| 2026-05-04 06:26 | 34.81654 | 136.73321 | 24536 ft | 531 kts | 92° |
| 2026-05-04 06:26 | 34.81955 | 136.77798 | 24710 ft | 529 kts | 92° |
| 2026-05-04 06:27 | 34.82847 | 136.95400 | 24747 ft | 511 kts | 103° |
| 2026-05-04 06:28 | 34.82539 | 136.99716 | 24747 ft | 509 kts | 105° |
| 2026-05-04 06:28 | 34.82139 | 137.03994 | 24745 ft | 508 kts | 107° |
| 2026-05-04 06:28 | 34.81678 | 137.08249 | 24744 ft | 507 kts | 107° |
| 2026-05-04 06:28 | 34.81187 | 137.12505 | 24743 ft | 506 kts | 108° |
| 2026-05-04 06:29 | 34.80693 | 137.16714 | 24742 ft | 506 kts | 108° |
| 2026-05-04 06:29 | 34.80196 | 137.20966 | 24741 ft | 506 kts | 108° |
| 2026-05-04 06:29 | 34.79704 | 137.25215 | 24739 ft | 507 kts | 108° |
| 2026-05-04 06:29 | 34.79216 | 137.29469 | 24739 ft | 507 kts | 108° |
| 2026-05-04 06:30 | 34.78733 | 137.33711 | 24739 ft | 507 kts | 108° |
| 2026-05-04 06:30 | 34.78250 | 137.37956 | 24732 ft | 507 kts | 108° |
| 2026-05-04 06:30 | 34.77772 | 137.42160 | 24735 ft | 507 kts | 108° |
| 2026-05-04 06:30 | 34.77287 | 137.46407 | 24729 ft | 507 kts | 108° |
| 2026-05-04 06:31 | 34.76801 | 137.50657 | 24728 ft | 507 kts | 107° |
| 2026-05-04 06:31 | 34.76312 | 137.54906 | 24726 ft | 506 kts | 107° |
| 2026-05-04 06:31 | 34.75823 | 137.59151 | 24724 ft | 506 kts | 107° |
| 2026-05-04 06:31 | 34.75332 | 137.63392 | 24722 ft | 506 kts | 108° |
| 2026-05-04 06:32 | 34.74848 | 137.67584 | 24722 ft | 505 kts | 107° |
| 2026-05-04 06:33 | 34.71995 | 137.97329 | 24688 ft | 505 kts | 105° |
| 2026-05-04 06:34 | 34.71604 | 138.01589 | 24671 ft | 508 kts | 102° |
| 2026-05-04 06:34 | 34.71492 | 138.05912 | 24669 ft | 511 kts | 99° |
| 2026-05-04 06:34 | 34.71436 | 138.10228 | 24663 ft | 512 kts | 98° |
| 2026-05-04 06:34 | 34.71433 | 138.14514 | 24660 ft | 512 kts | 97° |
| 2026-05-04 06:35 | 34.71455 | 138.18843 | 24662 ft | 512 kts | 97° |
| 2026-05-04 06:36 | 34.71574 | 138.49038 | 24680 ft | 509 kts | 97° |
| 2026-05-04 06:37 | 34.71576 | 138.53354 | 24682 ft | 509 kts | 97° |
| 2026-05-04 06:37 | 34.71577 | 138.57620 | 24687 ft | 508 kts | 97° |
| 2026-05-04 06:37 | 34.71577 | 138.61921 | 24689 ft | 508 kts | 97° |
| 2026-05-04 06:37 | 34.71575 | 138.66216 | 24689 ft | 508 kts | 97° |
| 2026-05-04 06:38 | 34.71573 | 138.70508 | 24682 ft | 507 kts | 97° |
| 2026-05-04 06:38 | 34.71568 | 138.74797 | 24686 ft | 507 kts | 97° |
| 2026-05-04 06:40 | 34.71478 | 139.04860 | 22007 ft | 498 kts | 97° |
| 2026-05-04 06:40 | 34.71453 | 139.09019 | 21452 ft | 493 kts | 97° |
| 2026-05-04 06:40 | 34.71428 | 139.13174 | 20903 ft | 488 kts | 97° |
| 2026-05-04 06:40 | 34.71403 | 139.17295 | 20368 ft | 483 kts | 97° |
| 2026-05-04 06:41 | 34.71377 | 139.21366 | 19841 ft | 479 kts | 97° |
| 2026-05-04 06:41 | 34.71350 | 139.25389 | 19324 ft | 474 kts | 97° |
| 2026-05-04 06:41 | 34.71323 | 139.29374 | 18832 ft | 469 kts | 97° |
| 2026-05-04 06:41 | 34.71296 | 139.33282 | 18388 ft | 464 kts | 97° |
| 2026-05-04 06:42 | 34.71267 | 139.37182 | 17950 ft | 459 kts | 97° |
| 2026-05-04 06:42 | 34.71224 | 139.41049 | 17441 ft | 454 kts | 99° |
| 2026-05-04 06:42 | 34.71008 | 139.44846 | 16917 ft | 446 kts | 103° |
| 2026-05-04 06:44 | 34.69022 | 139.70001 | 13667 ft | 410 kts | 104° |
| 2026-05-04 06:44 | 34.68760 | 139.73367 | 13180 ft | 398 kts | 105° |
| 2026-05-04 06:44 | 34.68503 | 139.76664 | 12681 ft | 386 kts | 105° |
| 2026-05-04 06:45 | 34.68251 | 139.79865 | 12299 ft | 372 kts | 105° |
| 2026-05-04 06:45 | 34.68017 | 139.82911 | 12206 ft | 352 kts | 104° |
| 2026-05-04 06:45 | 34.68140 | 139.85883 | 12190 ft | 358 kts | 80° |
| 2026-05-04 06:45 | 34.69113 | 139.88688 | 12107 ft | 362 kts | 63° |
| 2026-05-04 06:46 | 34.70357 | 139.91314 | 11832 ft | 363 kts | 59° |
| 2026-05-04 06:46 | 34.71666 | 139.93947 | 11605 ft | 362 kts | 59° |
| 2026-05-04 06:46 | 34.72968 | 139.96573 | 11408 ft | 361 kts | 59° |
| 2026-05-04 06:46 | 34.74238 | 139.99161 | 11213 ft | 359 kts | 59° |
| 2026-05-04 06:48 | 34.82981 | 140.17254 | 9887 ft | 349 kts | 59° |
| 2026-05-04 06:48 | 34.84207 | 140.19805 | 9706 ft | 348 kts | 59° |
| 2026-05-04 06:49 | 34.85474 | 140.22312 | 9512 ft | 346 kts | 50° |
| 2026-05-04 06:50 | 34.99297 | 140.24152 | 8335 ft | 286 kts | 343° |
| 2026-05-04 06:51 | 35.01287 | 140.24033 | 8181 ft | 285 kts | 343° |
| 2026-05-04 06:51 | 35.03273 | 140.23919 | 8003 ft | 284 kts | 344° |
| 2026-05-04 06:51 | 35.05247 | 140.23809 | 7824 ft | 283 kts | 344° |
| 2026-05-04 06:51 | 35.07209 | 140.23701 | 7648 ft | 281 kts | 344° |
| 2026-05-04 06:52 | 35.09138 | 140.23594 | 7474 ft | 280 kts | 344° |
| 2026-05-04 06:52 | 35.11083 | 140.23488 | 7302 ft | 278 kts | 344° |
| 2026-05-04 06:52 | 35.13036 | 140.23375 | 7134 ft | 287 kts | 345° |
| 2026-05-04 06:52 | 35.15078 | 140.23251 | 6956 ft | 297 kts | 345° |
| 2026-05-04 06:53 | 35.17144 | 140.23139 | 6789 ft | 298 kts | 346° |
| 2026-05-04 06:53 | 35.19184 | 140.23034 | 6616 ft | 296 kts | 346° |
| 2026-05-04 06:53 | 35.21239 | 140.22923 | 6454 ft | 294 kts | 346° |
| 2026-05-04 06:53 | 35.23282 | 140.22812 | 6277 ft | 293 kts | 346° |
| 2026-05-04 06:54 | 35.25315 | 140.22703 | 6116 ft | 292 kts | 346° |
| 2026-05-04 06:54 | 35.27339 | 140.22591 | 5926 ft | 289 kts | 347° |
| 2026-05-04 06:54 | 35.29329 | 140.22483 | 5750 ft | 288 kts | 347° |
| 2026-05-04 06:54 | 35.31333 | 140.22376 | 5573 ft | 288 kts | 347° |
| 2026-05-04 06:55 | 35.33333 | 140.22267 | 5404 ft | 286 kts | 346° |
| 2026-05-04 06:55 | 35.35330 | 140.22156 | 5222 ft | 286 kts | 346° |
| 2026-05-04 06:55 | 35.37285 | 140.22009 | 5090 ft | 281 kts | 342° |
| 2026-05-04 06:55 | 35.39208 | 140.21664 | 5063 ft | 278 kts | 339° |
| 2026-05-04 06:56 | 35.41108 | 140.21255 | 5054 ft | 277 kts | 339° |
| 2026-05-04 06:57 | 35.54281 | 140.18379 | 5037 ft | 276 kts | 341° |
| 2026-05-04 06:58 | 35.56175 | 140.17965 | 5013 ft | 274 kts | 341° |
| 2026-05-04 06:58 | 35.58050 | 140.17555 | 5015 ft | 274 kts | 341° |
| 2026-05-04 06:58 | 35.59916 | 140.17146 | 5020 ft | 275 kts | 342° |
| 2026-05-04 06:58 | 35.61811 | 140.16731 | 4932 ft | 276 kts | 342° |
| 2026-05-04 06:59 | 35.63705 | 140.16316 | 4810 ft | 275 kts | 342° |
| 2026-05-04 06:59 | 35.65568 | 140.15907 | 4691 ft | 274 kts | 342° |
| 2026-05-04 06:59 | 35.67449 | 140.15497 | 4573 ft | 274 kts | 342° |
| 2026-05-04 06:59 | 35.69285 | 140.14946 | 4465 ft | 264 kts | 328° |
| 2026-05-04 07:01 | 35.72440 | 140.04493 | 4024 ft | 153 kts | 231° |
| 2026-05-04 07:01 | 35.71709 | 140.03584 | 4039 ft | 149 kts | 230° |
| 2026-05-04 07:02 | 35.70965 | 140.02680 | 4025 ft | 151 kts | 230° |
| 2026-05-04 07:02 | 35.70227 | 140.01775 | 4029 ft | 151 kts | 230° |
| 2026-05-04 07:02 | 35.69478 | 140.00862 | 4026 ft | 151 kts | 230° |
| 2026-05-04 07:02 | 35.68727 | 139.99949 | 3969 ft | 151 kts | 230° |
| 2026-05-04 07:03 | 35.67982 | 139.99044 | 3790 ft | 150 kts | 230° |
| 2026-05-04 07:03 | 35.67255 | 139.98160 | 3558 ft | 147 kts | 230° |
| 2026-05-04 07:03 | 35.66526 | 139.97275 | 3335 ft | 147 kts | 229° |
| 2026-05-04 07:03 | 35.65800 | 139.96392 | 3126 ft | 145 kts | 229° |
| 2026-05-04 07:04 | 35.65090 | 139.95530 | 2937 ft | 142 kts | 228° |
| 2026-05-04 07:04 | 35.64390 | 139.94681 | 2760 ft | 140 kts | 229° |
| 2026-05-04 07:04 | 35.63704 | 139.93848 | 2581 ft | 137 kts | 229° |
| 2026-05-04 07:04 | 35.63042 | 139.93041 | 2390 ft | 134 kts | 227° |
| 2026-05-04 07:05 | 35.62375 | 139.92232 | 2223 ft | 132 kts | 226° |
| 2026-05-04 07:05 | 35.61735 | 139.91456 | 2055 ft | 130 kts | 226° |
| 2026-05-04 07:05 | 35.61102 | 139.90664 | 1928 ft | 130 kts | 228° |
| 2026-05-04 07:05 | 35.60515 | 139.89815 | 1862 ft | 129 kts | 226° |
| 2026-05-04 07:06 | 35.59282 | 139.88258 | 1587 ft | 127 kts | 227° |
| 2026-05-04 07:06 | 35.58655 | 139.87470 | 1377 ft | 129 kts | 221° |
| 2026-05-04 07:06 | 35.57974 | 139.86728 | 1223 ft | 131 kts | 221° |
| 2026-05-04 07:07 | 35.57317 | 139.85960 | 991 ft | 132 kts | 222° |
| 2026-05-04 07:08 | 35.53038 | 139.81065 | 50 ft | 25 kts | 223° |
| 2026-05-04 07:09 | 35.52949 | 139.80904 | 50 ft | 21 kts | 246° |
| 2026-05-04 07:09 | 35.52906 | 139.80776 | 50 ft | 9 kts | 247° |
| 2026-05-04 07:09 | 35.52895 | 139.80743 | 50 ft | 0 kts | 246° |
| 2026-05-04 07:09 | 35.52893 | 139.80739 | 50 ft | 1 kts | 246° |
| 2026-05-04 07:10 | 35.52889 | 139.80729 | 50 ft | 2 kts | 246° |
| 2026-05-04 07:10 | 35.52880 | 139.80694 | 50 ft | 10 kts | 255° |
| 2026-05-04 07:12 | 35.53360 | 139.80399 | 39 ft | 19 kts | 330° |
| 2026-05-04 07:12 | 35.53481 | 139.80312 | 35 ft | 21 kts | 329° |
| 2026-05-04 07:12 | 35.53617 | 139.80217 | 30 ft | 20 kts | 330° |
| 2026-05-04 07:12 | 35.53756 | 139.80177 | 24 ft | 18 kts | 353° |
| 2026-05-04 07:13 | 35.53822 | 139.80186 | 24 ft | 14 kts | 23° |
| 2026-05-04 07:13 | 35.53944 | 139.80149 | 25 ft | 15 kts | 329° |
| 2026-05-04 07:13 | 35.54004 | 139.80106 | 22 ft | 15 kts | 329° |
| 2026-05-04 07:14 | 35.54357 | 139.79856 | 23 ft | 14 kts | 330° |
| 2026-05-04 07:14 | 35.54466 | 139.79778 | 25 ft | 13 kts | 330° |
| 2026-05-04 07:15 | 35.54517 | 139.79742 | 28 ft | 12 kts | 330° |
| 2026-05-04 07:15 | 35.54586 | 139.79694 | 27 ft | 11 kts | 330° |
| 2026-05-04 07:15 | 35.54657 | 139.79644 | 26 ft | 12 kts | 330° |
| 2026-05-04 07:15 | 35.54726 | 139.79594 | 28 ft | 11 kts | 329° |
| 2026-05-04 07:16 | 35.54765 | 139.79566 | 29 ft | 10 kts | 329° |
| 2026-05-04 07:16 | 35.54834 | 139.79516 | 31 ft | 12 kts | 330° |
| 2026-05-04 07:16 | 35.54909 | 139.79464 | 30 ft | 13 kts | 330° |
| 2026-05-04 07:16 | 35.54989 | 139.79407 | 30 ft | 13 kts | 329° |
| 2026-05-04 07:17 | 35.55054 | 139.79357 | 29 ft | 10 kts | 315° |
| 2026-05-04 07:17 | 35.55064 | 139.79284 | 29 ft | 8 kts | 250° |
| 2026-05-04 07:17 | 35.55041 | 139.79232 | 30 ft | 6 kts | 240° |
| 2026-05-04 07:17 | 35.55021 | 139.79194 | 31 ft | 4 kts | 220° |
| 2026-05-04 07:18 | 35.54993 | 139.79200 | 30 ft | 5 kts | 151° |
| 2026-05-04 07:18 | 35.54967 | 139.79220 | 30 ft | 4 kts | 147° |
| 2026-05-04 07:18 | 35.54951 | 139.79233 | 31 ft | 2 kts | 147° |
| 2026-05-04 07:18 | 35.54946 | 139.79237 | 31 ft | 0 kts | 147° |
| 2026-05-04 07:19 | 35.54945 | 139.79238 | 31 ft | 1 kts | 147° |
| 2026-05-04 07:19 | 35.54942 | 139.79241 | 31 ft | 0 kts | 146° |